Time;durP1;ratioP1;P1;durP2;ratioP2;P2;SDS_P1;SDS_P2;PMS_P1;PMS_P2;Temp;Humidity;BMP_temperature;BMP_pressure;BME280_temperature;BME280_humidity;BME280_pressure;Samples;Min_cycle;Max_cycle;Signal;HPM_P1;HPM_P2
2021/12/19 00:04:33;;;;;;;8.77;2.20;;;7.90;99.90;;;;;;5082754;28;20426;-75
2021/12/19 00:09:43;;;;;;;11.00;2.88;;;7.90;99.90;;;;;;5087628;28;20518;-75
2021/12/19 00:12:09;;;;;;;9.63;2.72;;;7.90;99.90;;;;;;5053114;28;20935;-75
2021/12/19 00:14:35;;;;;;;8.77;2.90;;;7.90;99.90;;;;;;5088269;28;20463;-75
2021/12/19 00:17:00;;;;;;;11.33;3.30;;;7.90;99.90;;;;;;5087987;28;20405;-76
2021/12/19 00:19:26;;;;;;;11.73;3.92;;;8.00;99.90;;;;;;5053338;28;20926;-75
2021/12/19 00:21:52;;;;;;;11.60;4.83;;;8.00;99.90;;;;;;5070006;28;20443;-76
2021/12/19 00:24:18;;;;;;;11.87;4.97;;;8.00;99.90;;;;;;5088085;28;20426;-75
2021/12/19 00:26:44;;;;;;;12.85;5.80;;;8.00;99.90;;;;;;5088243;28;20402;-76
2021/12/19 00:29:10;;;;;;;14.10;6.47;;;8.00;99.90;;;;;;5069765;28;20458;-75
2021/12/19 00:31:37;;;;;;;18.40;7.13;;;8.00;99.90;;;;;;5070294;28;20475;-75
2021/12/19 00:34:03;;;;;;;14.17;6.93;;;8.10;99.90;;;;;;5070053;28;20409;-76
2021/12/19 00:36:29;;;;;;;16.53;7.80;;;8.00;99.90;;;;;;5086873;28;20768;-75
2021/12/19 00:38:54;;;;;;;17.27;8.10;;;8.00;99.90;;;;;;5086404;28;20402;-75
2021/12/19 00:41:20;;;;;;;19.33;9.30;;;8.00;99.90;;;;;;5086890;28;20406;-75
2021/12/19 00:43:53;;;;;;;20.97;9.00;;;8.10;99.90;;;;;;5069734;28;20440;-75
2021/12/19 00:46:21;;;;;;;25.15;9.57;;;8.10;99.90;;;;;;5086656;28;20398;-75
2021/12/19 00:48:53;;;;;;;20.02;9.38;;;8.00;99.90;;;;;;5086776;28;20413;-76
2021/12/19 00:51:24;;;;;;;23.17;9.60;;;8.10;99.90;;;;;;5087098;28;20398;-76
2021/12/19 00:53:53;;;;;;;16.35;8.45;;;8.10;99.90;;;;;;5086328;28;20408;-76
2021/12/19 00:56:19;;;;;;;21.67;9.38;;;8.00;99.90;;;;;;5086659;28;20402;-76
2021/12/19 00:58:45;;;;;;;18.48;9.02;;;8.00;99.90;;;;;;5086481;28;20463;-76
2021/12/19 01:01:12;;;;;;;21.70;9.40;;;8.10;99.90;;;;;;5085919;28;20421;-75
2021/12/19 01:03:43;;;;;;;18.15;8.75;;;8.00;99.90;;;;;;5069573;28;20461;-76
2021/12/19 01:06:08;;;;;;;18.77;7.68;;;8.00;99.90;;;;;;5086382;28;20401;-76
2021/12/19 01:08:34;;;;;;;16.17;6.70;;;8.00;99.90;;;;;;5095440;28;20762;-76
2021/12/19 01:11:00;;;;;;;15.60;6.30;;;8.10;99.90;;;;;;5089770;28;20890;-76
2021/12/19 01:13:25;;;;;;;12.47;5.93;;;8.00;99.90;;;;;;5089912;28;20758;-76
2021/12/19 01:15:52;;;;;;;15.13;5.57;;;8.00;99.90;;;;;;5090261;28;20396;-75
2021/12/19 01:18:18;;;;;;;12.85;5.03;;;8.00;99.90;;;;;;5090041;28;20963;-76
2021/12/19 01:20:44;;;;;;;11.18;4.75;;;8.00;99.90;;;;;;5089628;28;20445;-76
2021/12/19 01:23:10;;;;;;;10.73;4.00;;;8.00;99.90;;;;;;5089251;28;20432;-75
2021/12/19 01:25:36;;;;;;;12.32;3.95;;;7.90;99.90;;;;;;5092630;28;20453;-76
2021/12/19 01:28:03;;;;;;;11.40;4.07;;;7.90;99.90;;;;;;5111358;28;20404;-76
2021/12/19 01:30:29;;;;;;;12.43;3.95;;;7.90;99.90;;;;;;5111705;28;20396;-75
2021/12/19 01:32:54;;;;;;;14.63;3.75;;;7.90;99.90;;;;;;5093486;28;20407;-75
2021/12/19 01:35:23;;;;;;;12.50;3.90;;;7.90;99.90;;;;;;5093196;28;20405;-74
2021/12/19 01:37:49;;;;;;;10.10;3.10;;;7.80;99.90;;;;;;5111475;28;20424;-74
2021/12/19 01:40:18;;;;;;;12.30;3.13;;;7.80;99.90;;;;;;5093201;28;20974;-74
2021/12/19 01:42:46;;;;;;;9.87;2.80;;;7.80;99.90;;;;;;5111181;28;20784;-75
2021/12/19 01:45:14;;;;;;;9.65;2.50;;;7.80;99.90;;;;;;5093155;28;20478;-75
2021/12/19 01:47:41;;;;;;;10.15;2.60;;;7.80;99.90;;;;;;5111506;28;20508;-75
2021/12/19 01:50:08;;;;;;;8.23;2.47;;;7.70;99.90;;;;;;5093058;28;21058;-75
2021/12/19 01:52:34;;;;;;;8.05;2.30;;;7.70;99.90;;;;;;5092523;28;20495;-75
2021/12/19 01:55:00;;;;;;;8.45;1.92;;;7.70;99.90;;;;;;5076211;28;20845;-75
2021/12/19 01:57:26;;;;;;;5.50;1.40;;;7.70;99.90;;;;;;5111317;28;20811;-75
2021/12/19 01:59:56;;;;;;;6.45;1.75;;;7.70;99.90;;;;;;5092805;28;20407;-75
2021/12/19 02:02:22;;;;;;;8.00;2.28;;;7.70;99.90;;;;;;5111200;28;20418;-75
2021/12/19 02:04:48;;;;;;;10.48;2.45;;;7.70;99.90;;;;;;5092250;28;20445;-75
2021/12/19 02:07:15;;;;;;;11.43;3.25;;;7.70;99.90;;;;;;5093066;28;20754;-75
2021/12/19 02:09:42;;;;;;;10.30;2.70;;;7.70;99.90;;;;;;5110547;28;20412;-75
2021/12/19 02:12:08;;;;;;;12.00;3.08;;;7.60;99.90;;;;;;5092943;28;20412;-74
2021/12/19 02:14:35;;;;;;;10.32;3.25;;;7.60;99.90;;;;;;5092553;28;20404;-75
2021/12/19 02:17:00;;;;;;;10.48;3.17;;;7.60;99.90;;;;;;5092056;28;20413;-75
2021/12/19 02:19:29;;;;;;;14.60;3.45;;;7.60;99.90;;;;;;5092585;28;21019;-75
2021/12/19 02:21:55;;;;;;;11.32;3.25;;;7.60;99.90;;;;;;5110484;28;20400;-75
2021/12/19 02:24:21;;;;;;;7.23;1.73;;;7.60;99.90;;;;;;5110580;28;20944;-75
2021/12/19 02:26:47;;;;;;;7.28;1.40;;;7.70;99.90;;;;;;5126642;27;20415;-75
2021/12/19 02:29:13;;;;;;;6.80;1.65;;;7.60;99.90;;;;;;5091812;28;20533;-75
2021/12/19 02:31:39;;;;;;;7.57;1.70;;;7.60;99.90;;;;;;5075557;28;20407;-75
2021/12/19 02:49:49;;;;;;;11.73;4.10;;;7.60;99.90;;;;;;5089892;28;20398;-75
2021/12/19 02:52:17;;;;;;;12.02;4.18;;;7.60;99.90;;;;;;5088068;28;20863;-74
2021/12/19 02:54:43;;;;;;;13.53;3.80;;;7.60;99.90;;;;;;5089817;28;20449;-75
2021/12/19 02:57:09;;;;;;;8.57;3.50;;;7.60;99.90;;;;;;5088598;28;20398;-74
2021/12/19 02:59:36;;;;;;;14.55;3.92;;;7.60;99.90;;;;;;5089454;28;20394;-75
2021/12/19 03:02:02;;;;;;;14.75;4.05;;;7.70;99.90;;;;;;5087744;28;20452;-75
2021/12/19 03:04:29;;;;;;;13.68;3.63;;;7.70;99.90;;;;;;5088133;28;20425;-75
2021/12/19 03:06:54;;;;;;;15.13;4.00;;;7.70;99.90;;;;;;5071185;28;20402;-75
2021/12/19 03:12:26;;;;;;;11.90;3.70;;;7.70;99.90;;;;;;5050351;28;20489;-75
2021/12/19 03:20:20;;;;;;;13.75;4.63;;;7.70;99.90;;;;;;5079061;28;20760;-75
2021/12/19 03:22:46;;;;;;;13.10;4.53;;;7.70;99.90;;;;;;5071051;28;20430;-75
2021/12/19 03:25:11;;;;;;;18.88;4.65;;;7.70;99.90;;;;;;5105477;28;20396;-75
2021/12/19 03:27:37;;;;;;;17.30;5.23;;;7.70;99.90;;;;;;5109593;28;20435;-75
2021/12/19 03:30:07;;;;;;;16.80;5.47;;;7.70;99.90;;;;;;5091388;28;20758;-75
2021/12/19 03:32:33;;;;;;;16.73;4.93;;;7.80;99.90;;;;;;5083877;28;20410;-75
2021/12/19 03:34:59;;;;;;;21.40;5.65;;;7.70;99.90;;;;;;5070229;28;20468;-75
2021/12/19 03:37:25;;;;;;;17.38;4.72;;;7.70;99.90;;;;;;5070769;28;20409;-74
2021/12/19 03:40:07;;;;;;;18.63;3.90;;;7.70;99.90;;;;;;5070890;28;20406;-75
2021/12/19 03:42:35;;;;;;;12.90;3.28;;;7.70;99.90;;;;;;5070490;28;20436;-75
2021/12/19 03:45:01;;;;;;;16.57;3.53;;;7.70;99.90;;;;;;5070559;28;20416;-75
2021/12/19 03:47:26;;;;;;;15.10;3.47;;;7.70;99.90;;;;;;5088290;28;20492;-75
2021/12/19 03:49:52;;;;;;;14.07;3.47;;;7.70;99.90;;;;;;5079608;28;20491;-74
2021/12/19 03:52:18;;;;;;;15.88;4.07;;;7.70;99.90;;;;;;5090849;28;20757;-75
2021/12/19 03:54:43;;;;;;;15.53;3.87;;;7.70;99.90;;;;;;5090341;28;20396;-75
2021/12/19 03:57:09;;;;;;;18.08;4.63;;;7.70;99.90;;;;;;5090697;28;20470;-74
2021/12/19 03:59:35;;;;;;;14.75;4.70;;;7.70;99.90;;;;;;5108967;28;20807;-75
2021/12/19 04:02:01;;;;;;;20.55;5.45;;;7.70;99.90;;;;;;5090886;28;20465;-74
2021/12/19 04:04:27;;;;;;;17.80;5.00;;;7.70;99.90;;;;;;5108899;28;20427;-75
2021/12/19 04:06:54;;;;;;;20.00;5.80;;;7.70;99.90;;;;;;5090521;28;20435;-75
2021/12/19 04:09:20;;;;;;;18.80;6.00;;;7.70;99.90;;;;;;5089820;28;20503;-75
2021/12/19 04:11:45;;;;;;;17.33;5.50;;;7.80;99.90;;;;;;5090736;28;20831;-74
2021/12/19 04:14:11;;;;;;;18.23;5.67;;;7.80;99.90;;;;;;5090565;28;20396;-75
2021/12/19 04:16:42;;;;;;;17.90;5.32;;;7.80;99.90;;;;;;5090187;28;20757;-75
2021/12/19 04:19:08;;;;;;;18.85;4.82;;;7.80;99.90;;;;;;5090655;28;20897;-74
2021/12/19 04:21:34;;;;;;;19.65;5.05;;;7.80;99.90;;;;;;5108495;28;20437;-75
2021/12/19 04:24:00;;;;;;;19.95;4.82;;;7.80;99.90;;;;;;5099155;28;20430;-74
2021/12/19 04:26:25;;;;;;;19.53;5.90;;;7.80;99.90;;;;;;5070218;28;20443;-75
2021/12/19 04:28:51;;;;;;;21.42;6.10;;;7.80;99.90;;;;;;5069414;28;20488;-75
2021/12/19 04:31:17;;;;;;;19.93;6.07;;;7.80;99.90;;;;;;5087336;28;20406;-75
2021/12/19 04:33:43;;;;;;;21.55;6.55;;;7.80;99.90;;;;;;5086482;28;21000;-75
2021/12/19 04:36:11;;;;;;;22.42;7.53;;;7.80;99.90;;;;;;5087195;28;20413;-75
2021/12/19 04:42:32;;;;;;;20.80;7.73;;;7.80;99.90;;;;;;5044794;28;20541;-75
2021/12/19 04:50:49;;;;;;;27.33;8.60;;;7.80;99.90;;;;;;5085414;28;20546;-75
2021/12/19 04:53:37;;;;;;;20.67;7.25;;;7.80;99.90;;;;;;5087914;28;20406;-75
2021/12/19 05:00:59;;;;;;;21.73;8.45;;;7.80;99.90;;;;;;5090897;28;20926;-75
2021/12/19 05:03:42;;;;;;;25.50;9.20;;;7.80;99.90;;;;;;5090355;28;20437;-75
2021/12/19 05:16:39;;;;;;;25.77;9.73;;;7.70;99.90;;;;;;5093434;28;20400;-75
2021/12/19 05:19:28;;;;;;;23.98;9.88;;;7.70;99.90;;;;;;5111798;28;20457;-75
2021/12/19 05:22:01;;;;;;;23.02;9.90;;;7.70;99.90;;;;;;5111249;28;20837;-75
2021/12/19 05:24:47;;;;;;;27.73;9.80;;;7.70;99.90;;;;;;5111640;28;20562;-75
2021/12/19 05:27:12;;;;;;;24.23;10.20;;;7.70;99.90;;;;;;5111717;28;20396;-75
2021/12/19 05:29:39;;;;;;;21.35;9.65;;;7.70;99.90;;;;;;5093565;28;20854;-75
2021/12/19 05:32:06;;;;;;;23.95;10.30;;;7.70;99.90;;;;;;5111658;28;20396;-75
2021/12/19 05:34:32;;;;;;;23.65;9.65;;;7.70;99.90;;;;;;5093046;28;20923;-75
2021/12/19 05:45:13;;;;;;;25.50;10.70;;;7.70;99.90;;;;;;5111507;28;20882;-75
2021/12/19 05:47:49;;;;;;;29.53;10.77;;;7.70;99.90;;;;;;5093072;28;20466;-75
2021/12/19 05:50:17;;;;;;;25.30;10.47;;;7.70;99.90;;;;;;5093086;28;20465;-75
2021/12/19 05:52:43;;;;;;;30.55;10.55;;;7.70;99.90;;;;;;5093092;28;20419;-76
2021/12/19 05:55:09;;;;;;;27.70;10.63;;;7.70;99.90;;;;;;5092958;28;20762;-77
2021/12/19 05:57:35;;;;;;;26.83;9.50;;;7.70;99.90;;;;;;5092853;28;20401;-75
2021/12/19 06:00:04;;;;;;;27.05;8.15;;;7.70;99.90;;;;;;5092628;28;20512;-75
2021/12/19 06:02:30;;;;;;;23.92;7.30;;;7.70;99.90;;;;;;5092730;28;20831;-75
2021/12/19 06:04:56;;;;;;;16.98;4.05;;;7.60;99.90;;;;;;5092031;28;20400;-75
2021/12/19 06:07:22;;;;;;;12.00;3.42;;;7.60;99.90;;;;;;5092578;28;20462;-76
2021/12/19 06:09:47;;;;;;;11.17;2.40;;;7.60;99.90;;;;;;5074235;28;20405;-75
2021/12/19 06:12:13;;;;;;;8.02;1.65;;;7.60;99.90;;;;;;5090436;28;20410;-74
2021/12/19 06:14:39;;;;;;;9.30;1.70;;;7.60;99.90;;;;;;5089921;28;20398;-75
2021/12/19 06:17:05;;;;;;;8.80;1.40;;;7.60;99.90;;;;;;5072254;28;20919;-75
2021/12/19 06:19:36;;;;;;;12.90;2.40;;;7.60;99.90;;;;;;5090450;28;20485;-75
2021/12/19 06:22:03;;;;;;;9.52;1.40;;;7.60;99.90;;;;;;5071613;28;20428;-75
2021/12/19 06:24:28;;;;;;;11.25;1.50;;;7.50;99.90;;;;;;5077186;28;20471;-75
2021/12/19 06:26:54;;;;;;;11.05;1.80;;;7.50;99.90;;;;;;5052133;28;20546;-75
2021/12/19 06:29:19;;;;;;;9.53;1.50;;;7.50;99.90;;;;;;5052189;28;20404;-75
2021/12/19 06:31:45;;;;;;;11.25;2.08;;;7.50;99.90;;;;;;5052020;28;20473;-75
2021/12/19 06:34:11;;;;;;;9.98;2.10;;;7.50;99.90;;;;;;5052226;28;20762;-75
2021/12/19 06:36:37;;;;;;;11.43;2.30;;;7.50;99.90;;;;;;5069505;28;20433;-75
2021/12/19 06:39:03;;;;;;;15.93;2.63;;;7.50;99.90;;;;;;5069756;28;20459;-75
2021/12/19 06:41:29;;;;;;;15.98;2.60;;;7.50;99.90;;;;;;5052171;28;20458;-75
2021/12/19 06:43:55;;;;;;;11.97;2.80;;;7.50;99.90;;;;;;5051488;28;20949;-75
2021/12/19 06:46:20;;;;;;;14.38;2.65;;;7.50;99.90;;;;;;5051610;28;20579;-75
2021/12/19 06:48:46;;;;;;;15.82;3.15;;;7.50;99.90;;;;;;5051873;28;20761;-75
2021/12/19 06:51:12;;;;;;;21.93;3.30;;;7.50;99.90;;;;;;5051519;28;20402;-75
2021/12/19 06:53:37;;;;;;;19.63;3.90;;;7.50;99.90;;;;;;5051476;28;20461;-75
2021/12/19 06:56:04;;;;;;;17.80;3.55;;;7.50;99.90;;;;;;5035039;28;20415;-74
2021/12/19 06:58:30;;;;;;;22.30;4.32;;;7.50;99.90;;;;;;5051471;28;20443;-75
2021/12/19 07:00:55;;;;;;;21.08;4.75;;;7.50;99.90;;;;;;5051478;28;20669;-75
2021/12/19 07:03:23;;;;;;;24.10;4.70;;;7.50;99.90;;;;;;5068936;28;20481;-75
2021/12/19 07:05:50;;;;;;;26.80;5.40;;;7.50;99.90;;;;;;5051235;28;20403;-75
2021/12/19 07:08:16;;;;;;;24.50;5.25;;;7.60;99.90;;;;;;5039530;28;20407;-75
2021/12/19 07:10:42;;;;;;;25.48;5.85;;;7.60;99.90;;;;;;5088990;28;20910;-75
2021/12/19 07:13:08;;;;;;;27.38;5.43;;;7.60;99.90;;;;;;5071281;28;20410;-75
2021/12/19 07:15:33;;;;;;;27.67;5.45;;;7.60;99.90;;;;;;5071407;28;20409;-75
2021/12/19 07:18:02;;;;;;;19.77;5.40;;;7.60;99.90;;;;;;5071277;28;21337;-75
2021/12/19 07:20:29;;;;;;;29.13;5.63;;;7.60;99.90;;;;;;5070288;28;20406;-75
2021/12/19 07:22:55;;;;;;;26.33;5.38;;;7.60;99.90;;;;;;5087941;28;20421;-75
2021/12/19 07:25:21;;;;;;;23.15;5.10;;;7.60;99.90;;;;;;5089131;28;20463;-75
2021/12/19 07:27:46;;;;;;;26.02;5.75;;;7.60;99.90;;;;;;5088842;28;20451;-75
2021/12/19 07:30:12;;;;;;;26.67;5.87;;;7.60;99.90;;;;;;5070447;28;20413;-75
2021/12/19 07:32:39;;;;;;;27.08;6.28;;;7.60;99.90;;;;;;5089064;28;20730;-75
2021/12/19 07:35:07;;;;;;;25.30;5.73;;;7.60;99.90;;;;;;5070741;28;20502;-75
2021/12/19 07:37:35;;;;;;;22.60;5.35;;;7.60;99.90;;;;;;5070234;28;20443;-75
2021/12/19 07:40:20;;;;;;;24.15;5.40;;;7.60;99.90;;;;;;5088381;28;20394;-75
2021/12/19 07:42:47;;;;;;;23.95;5.25;;;7.60;99.90;;;;;;5070060;28;20920;-75
2021/12/19 07:45:14;;;;;;;21.42;4.93;;;7.60;99.90;;;;;;5071125;28;20772;-75
2021/12/19 07:47:41;;;;;;;23.70;4.90;;;7.60;99.90;;;;;;5088797;28;20398;-75
2021/12/19 07:50:08;;;;;;;25.63;5.25;;;7.60;99.90;;;;;;5070567;28;20406;-75
2021/12/19 07:52:34;;;;;;;20.08;4.18;;;7.60;99.90;;;;;;5053423;28;20409;-75
2021/12/19 07:55:01;;;;;;;20.00;4.10;;;7.60;99.90;;;;;;5070299;28;20402;-75
2021/12/19 07:57:27;;;;;;;19.50;3.80;;;7.60;99.90;;;;;;5088758;28;20451;-75
2021/12/19 07:59:52;;;;;;;18.97;3.50;;;7.60;99.90;;;;;;5053223;28;20410;-75
2021/12/19 08:02:18;;;;;;;22.13;4.03;;;7.60;99.90;;;;;;5070501;28;20402;-75
2021/12/19 08:04:44;;;;;;;22.40;3.73;;;7.60;99.90;;;;;;5069996;28;20457;-74
2021/12/19 08:07:12;;;;;;;21.55;4.07;;;7.60;99.90;;;;;;5070120;28;20403;-75
2021/12/19 08:09:56;;;;;;;16.30;3.77;;;7.60;99.90;;;;;;5087147;28;20951;-75
2021/12/19 08:12:21;;;;;;;20.48;3.83;;;7.60;99.90;;;;;;5069615;28;20417;-75
2021/12/19 08:14:47;;;;;;;16.80;3.47;;;7.60;99.90;;;;;;5069625;28;20402;-75
2021/12/19 08:17:12;;;;;;;15.77;3.40;;;7.60;99.90;;;;;;5069240;28;20398;-75
2021/12/19 08:19:38;;;;;;;18.25;3.72;;;7.60;99.90;;;;;;5087196;28;20406;-75
2021/12/19 08:22:04;;;;;;;19.90;4.17;;;7.70;99.90;;;;;;5089542;28;20442;-75
2021/12/19 08:24:29;;;;;;;17.65;3.90;;;7.60;99.90;;;;;;5069195;28;21035;-74
2021/12/19 08:26:55;;;;;;;19.88;4.20;;;7.70;99.90;;;;;;5069075;28;20406;-74
2021/12/19 08:29:21;;;;;;;20.97;4.00;;;7.70;99.90;;;;;;5069740;28;20979;-75
2021/12/19 08:31:49;;;;;;;18.27;3.95;;;7.70;99.90;;;;;;5088963;28;20481;-75
2021/12/19 08:34:15;;;;;;;17.45;3.75;;;7.70;99.90;;;;;;5090383;28;20455;-75
2021/12/19 08:36:40;;;;;;;17.50;3.72;;;7.70;99.90;;;;;;5073801;28;20406;-76
2021/12/19 08:39:07;;;;;;;18.67;3.77;;;7.70;99.90;;;;;;5091548;28;20400;-75
2021/12/19 08:41:33;;;;;;;16.25;3.75;;;7.70;99.90;;;;;;5090746;28;20437;-75
2021/12/19 08:43:59;;;;;;;19.10;3.93;;;7.80;99.90;;;;;;5073144;28;20430;-75
2021/12/19 08:46:25;;;;;;;18.52;4.00;;;7.70;99.90;;;;;;5091405;28;20405;-75
2021/12/19 08:48:50;;;;;;;18.80;4.45;;;7.80;99.90;;;;;;5094968;28;20401;-76
2021/12/19 08:51:16;;;;;;;19.67;4.20;;;7.80;99.90;;;;;;5091394;28;20801;-75
2021/12/19 08:53:41;;;;;;;24.02;4.60;;;7.80;99.90;;;;;;5109393;28;20396;-76
2021/12/19 08:56:07;;;;;;;23.90;4.47;;;7.80;99.90;;;;;;5089951;28;20805;-77
2021/12/19 08:58:33;;;;;;;18.52;4.30;;;7.80;99.90;;;;;;5105309;28;20400;-77
2021/12/19 09:01:01;;;;;;;20.07;4.50;;;7.80;99.90;;;;;;5094483;28;20400;-77
2021/12/19 09:03:29;;;;;;;25.83;5.00;;;7.80;99.90;;;;;;5090810;28;20433;-77
2021/12/19 09:05:54;;;;;;;17.80;3.72;;;7.80;99.90;;;;;;5093066;28;20043;-77
2021/12/19 09:08:20;;;;;;;30.08;4.30;;;7.80;99.90;;;;;;5076004;28;20047;-75
2021/12/19 09:10:46;;;;;;;;;;;7.80;99.90;;;;;;5069584;28;20044;-76
2021/12/19 09:13:11;;;;;;;;;;;7.80;99.90;;;;;;5109884;28;19924;-76
2021/12/19 09:15:37;;;;;;;;;;;7.80;99.90;;;;;;5110984;28;19999;-76
2021/12/19 09:18:02;;;;;;;;;;;7.90;99.90;;;;;;5093131;28;19935;-76
2021/12/19 09:20:28;;;;;;;;;;;7.90;99.90;;;;;;5110755;28;20007;-75
2021/12/19 09:22:53;;;;;;;;;;;7.90;99.90;;;;;;5112200;28;19926;-76
2021/12/19 09:25:20;;;;;;;16.58;3.28;;;7.90;99.90;;;;;;5103753;28;19920;-76
2021/12/19 09:27:46;;;;;;;24.15;5.32;;;7.90;99.90;;;;;;5074185;28;20924;-76
2021/12/19 09:30:12;;;;;;;23.17;5.07;;;7.90;99.90;;;;;;5084950;28;20836;-76
2021/12/19 09:32:38;;;;;;;23.23;5.27;;;7.90;99.90;;;;;;5107789;28;20436;-76
2021/12/19 09:35:04;;;;;;;24.05;5.20;;;7.90;99.90;;;;;;5110156;28;20396;-76
2021/12/19 09:37:30;;;;;;;26.63;4.40;;;7.90;99.90;;;;;;5112067;28;20051;-76
2021/12/19 09:39:56;;;;;;;20.77;3.78;;;7.90;99.90;;;;;;5111754;28;20205;-74
2021/12/19 09:42:32;;;;;;;20.80;4.07;;;7.90;99.90;;;;;;5093696;28;20054;-74
2021/12/19 09:45:01;;;;;;;20.23;3.22;;;7.90;99.90;;;;;;5092795;28;20573;-74
2021/12/19 09:47:27;;;;;;;19.40;2.42;;;7.90;99.90;;;;;;5104965;28;20035;-74
2021/12/19 09:49:53;;;;;;;14.13;2.85;;;7.90;99.90;;;;;;5111390;28;20058;-74
2021/12/19 09:52:19;;;;;;;25.10;4.78;;;7.90;99.90;;;;;;5075856;28;20546;-75
2021/12/19 09:54:45;;;;;;;21.83;2.95;;;7.90;99.90;;;;;;5091070;28;20135;-75
2021/12/19 09:57:11;;;;;;;13.80;2.40;;;7.90;99.90;;;;;;5091161;28;20127;-75
2021/12/19 09:59:37;;;;;;;18.52;3.42;;;8.00;99.90;;;;;;5072645;28;20068;-74
2021/12/19 10:02:03;;;;;;;18.40;2.90;;;8.00;99.90;;;;;;5091051;28;20399;-75
2021/12/19 10:04:41;;;;;;;23.75;3.28;;;8.00;99.90;;;;;;5056514;28;20574;-75
2021/12/19 10:07:14;;;;;;;16.25;3.22;;;8.00;99.90;;;;;;5084269;28;20091;-74
2021/12/19 10:09:59;;;;;;;20.65;3.58;;;8.00;99.90;;;;;;5092693;28;20138;-75
2021/12/19 10:14:57;;;;;;;14.23;2.50;;;8.00;99.90;;;;;;5093912;28;20051;-75
2021/12/19 10:17:23;;;;;;;21.02;3.78;;;8.10;99.90;;;;;;5093424;28;20073;-75
2021/12/19 10:19:54;;;;;;;25.50;3.80;;;8.10;99.90;;;;;;5093368;28;20405;-75
2021/12/19 10:22:45;;;;;;;19.13;3.20;;;8.10;99.90;;;;;;5075679;28;20051;-75
2021/12/19 10:25:23;;;;;;;23.13;3.20;;;8.10;99.90;;;;;;5074306;28;20105;-75
2021/12/19 10:28:08;;;;;;;21.85;3.83;;;8.10;99.90;;;;;;5082557;28;20043;-75
2021/12/19 10:30:42;;;;;;;18.48;3.08;;;8.10;99.90;;;;;;5084306;28;20048;-75
2021/12/19 10:33:10;;;;;;;11.38;2.25;;;8.20;99.90;;;;;;5089169;28;20129;-75
2021/12/19 10:35:43;;;;;;;16.33;2.58;;;8.20;99.90;;;;;;5103297;28;20043;-75
2021/12/19 10:38:15;;;;;;;18.10;2.83;;;8.20;99.90;;;;;;5106614;28;20055;-75
2021/12/19 10:40:49;;;;;;;20.15;3.42;;;8.30;99.90;;;;;;5075712;28;20077;-75
2021/12/19 10:43:17;;;;;;;19.58;3.17;;;8.30;99.90;;;;;;5092240;28;20036;-75
2021/12/19 10:45:54;;;;;;;14.63;3.10;;;8.30;99.90;;;;;;5092670;28;20498;-75
2021/12/19 10:48:31;;;;;;;20.80;3.92;;;8.30;99.90;;;;;;5111092;28;20122;-75
2021/12/19 10:51:04;;;;;;;20.95;3.78;;;8.30;99.90;;;;;;5092614;28;20051;-75
2021/12/19 10:53:41;;;;;;;15.70;3.00;;;8.30;99.90;;;;;;5092494;28;20052;-75
2021/12/19 10:56:13;;;;;;;18.50;3.70;;;8.30;99.90;;;;;;5091844;28;20079;-75
2021/12/19 10:58:43;;;;;;;19.17;2.92;;;8.30;99.90;;;;;;5111016;28;20506;-75
2021/12/19 11:01:19;;;;;;;16.65;2.60;;;8.40;99.90;;;;;;5092223;28;20047;-75
2021/12/19 11:03:49;;;;;;;23.50;3.80;;;8.40;99.90;;;;;;5091924;28;20051;-75
2021/12/19 11:06:15;;;;;;;31.30;3.47;;;8.40;99.90;;;;;;5109628;28;20532;-73
2021/12/19 11:08:43;;;;;;;18.38;3.60;;;8.40;99.90;;;;;;5069898;28;20468;-73
2021/12/19 11:11:10;;;;;;;21.95;4.18;;;8.40;99.90;;;;;;5084956;28;20059;-71
2021/12/19 11:13:36;;;;;;;23.85;3.70;;;8.40;99.90;;;;;;5089364;28;20071;-72
2021/12/19 11:16:02;;;;;;;21.42;3.85;;;8.40;99.90;;;;;;5090560;28;20047;-74
2021/12/19 11:18:28;;;;;;;20.52;3.13;;;8.50;99.90;;;;;;5090091;28;20403;-74
2021/12/19 11:20:54;;;;;;;23.60;3.38;;;8.50;99.90;;;;;;5089957;28;20153;-73
2021/12/19 11:23:19;;;;;;;21.13;4.28;;;8.50;99.90;;;;;;5089173;28;20506;-74
2021/12/19 11:25:45;;;;;;;27.75;4.45;;;8.50;99.90;;;;;;5090347;28;20040;-74
2021/12/19 11:28:11;;;;;;;22.45;3.63;;;8.50;99.90;;;;;;5089852;28;20048;-74
2021/12/19 11:30:38;;;;;;;22.02;3.60;;;8.50;99.90;;;;;;5088837;28;20040;-74
2021/12/19 11:33:33;;;;;;;22.08;3.40;;;8.50;99.90;;;;;;5088888;28;20056;-74
2021/12/19 11:36:00;;;;;;;21.92;4.00;;;8.50;99.90;;;;;;5047859;28;20055;-74
2021/12/19 11:38:27;;;;;;;24.45;3.55;;;8.50;99.90;;;;;;5090116;28;20097;-74
2021/12/19 11:40:53;;;;;;;17.08;3.10;;;8.50;99.90;;;;;;5089476;28;20126;-74
2021/12/19 11:43:19;;;;;;;17.33;2.80;;;8.60;99.90;;;;;;5090174;28;20047;-74
2021/12/19 11:45:57;;;;;;;11.50;1.88;;;8.60;99.90;;;;;;5090158;28;20048;-74
2021/12/19 11:48:29;;;;;;;13.75;2.42;;;8.60;99.90;;;;;;5090159;28;20584;-75
2021/12/19 11:51:07;;;;;;;12.98;2.15;;;8.60;99.90;;;;;;5088291;28;20108;-74
2021/12/19 11:53:37;;;;;;;12.48;1.90;;;8.50;99.90;;;;;;5089945;28;20063;-74
2021/12/19 11:56:04;;;;;;;14.60;1.95;;;8.60;99.90;;;;;;5088705;28;20039;-74
2021/12/19 11:58:36;;;;;;;18.48;2.97;;;8.60;99.90;;;;;;5090027;28;20048;-74
2021/12/19 12:01:11;;;;;;;13.05;2.05;;;8.50;99.90;;;;;;5088534;28;20044;-74
2021/12/19 12:03:46;;;;;;;10.65;1.50;;;8.60;99.90;;;;;;5088181;28;20052;-74
2021/12/19 12:06:19;;;;;;;15.90;3.30;;;8.60;99.90;;;;;;5071680;28;20044;-74
2021/12/19 12:09:03;;;;;;;10.38;3.00;;;8.60;99.90;;;;;;5087449;28;20091;-74
2021/12/19 12:11:30;;;;;;;15.85;2.92;;;8.60;99.90;;;;;;5088189;28;20051;-75
2021/12/19 12:14:21;;;;;;;15.88;2.35;;;8.60;99.90;;;;;;5088393;28;20072;-74
2021/12/19 12:16:56;;;;;;;10.57;1.75;;;8.60;99.90;;;;;;5088882;28;20162;-74
2021/12/19 12:19:47;;;;;;;12.32;2.40;;;8.50;99.90;;;;;;5087827;28;20397;-74
2021/12/19 12:22:27;;;;;;;14.73;2.30;;;8.50;99.90;;;;;;5070235;28;20169;-76
2021/12/19 12:25:02;;;;;;;16.00;1.77;;;8.50;99.90;;;;;;5071255;28;20078;-74
2021/12/19 12:27:35;;;;;;;14.70;2.72;;;8.50;99.90;;;;;;5071651;28;20062;-74
2021/12/19 12:30:10;;;;;;;15.65;2.50;;;8.50;99.90;;;;;;5088296;28;20044;-75
2021/12/19 12:32:36;;;;;;;17.88;2.90;;;8.50;99.90;;;;;;5087987;28;20052;-75
2021/12/19 12:35:03;;;;;;;18.08;2.67;;;8.50;99.90;;;;;;5071960;28;20210;-75
2021/12/19 12:37:29;;;;;;;15.43;2.67;;;8.50;99.90;;;;;;5088889;28;20072;-74
2021/12/19 12:40:30;;;;;;;18.05;2.25;;;8.40;99.90;;;;;;5071116;28;20051;-75
2021/12/19 12:43:12;;;;;;;18.02;3.13;;;8.40;99.90;;;;;;5071000;28;20301;-74
2021/12/19 12:46:00;;;;;;;18.60;2.05;;;8.40;99.90;;;;;;5088412;28;20370;-74
2021/12/19 12:48:35;;;;;;;18.17;2.45;;;8.40;99.90;;;;;;5071704;28;20688;-75
2021/12/19 12:51:04;;;;;;;21.15;2.40;;;8.40;99.90;;;;;;5071309;28;20048;-75
2021/12/19 12:53:44;;;;;;;17.42;2.55;;;8.40;99.90;;;;;;5087549;28;20048;-75
2021/12/19 12:56:18;;;;;;;18.13;2.13;;;8.50;99.90;;;;;;5088080;28;20048;-75
2021/12/19 12:58:47;;;;;;;14.55;2.38;;;8.50;99.90;;;;;;5071198;28;20047;-75
2021/12/19 13:01:25;;;;;;;23.80;5.40;;;8.50;99.90;;;;;;5087379;28;20048;-75
2021/12/19 13:04:08;;;;;;;20.08;3.17;;;8.50;99.90;;;;;;5086993;28;20126;-75
2021/12/19 13:06:42;;;;;;;27.88;3.33;;;8.50;99.90;;;;;;5069801;28;20062;-75
2021/12/19 13:09:25;;;;;;;21.35;4.93;;;8.50;99.90;;;;;;5100055;28;20067;-75
2021/12/19 13:11:57;;;;;;;22.27;3.90;;;8.60;99.90;;;;;;5073066;28;20117;-75
2021/12/19 13:14:27;;;;;;;18.33;2.90;;;8.60;99.90;;;;;;5090188;28;20047;-75
2021/12/19 13:17:10;;;;;;;19.58;3.10;;;8.60;99.90;;;;;;5090014;28;20062;-76
2021/12/19 13:19:51;;;;;;;15.73;2.78;;;8.60;99.90;;;;;;5089675;28;20602;-76
2021/12/19 13:22:23;;;;;;;18.75;3.08;;;8.60;99.90;;;;;;5093552;28;20043;-75
2021/12/19 13:24:51;;;;;;;20.90;3.33;;;8.70;99.90;;;;;;5096047;28;20087;-75
2021/12/19 13:27:25;;;;;;;18.40;2.80;;;8.60;99.90;;;;;;5090440;28;20047;-74
2021/12/19 13:29:58;;;;;;;16.17;3.47;;;8.60;99.90;;;;;;5090202;28;20259;-74
2021/12/19 13:32:28;;;;;;;15.18;2.78;;;8.70;99.90;;;;;;5090844;28;20147;-75
2021/12/19 13:34:55;;;;;;;15.40;2.25;;;8.70;99.90;;;;;;5091981;28;20114;-78
2021/12/19 13:37:21;;;;;;;15.45;2.17;;;8.70;99.90;;;;;;5112095;28;20054;-75
2021/12/19 13:40:08;;;;;;;17.92;2.55;;;8.70;99.90;;;;;;5093199;28;20040;-75
2021/12/19 13:42:40;;;;;;;9.80;1.58;;;8.70;99.90;;;;;;5112570;28;20189;-75
2021/12/19 13:45:38;;;;;;;14.13;2.00;;;8.70;99.90;;;;;;5094502;28;20074;-75
2021/12/19 13:48:19;;;;;;;13.35;2.47;;;8.70;99.90;;;;;;5093829;28;20040;-75
2021/12/19 13:50:55;;;;;;;14.75;1.92;;;8.70;99.90;;;;;;5110562;28;20044;-75
2021/12/19 13:53:21;;;;;;;21.75;2.25;;;8.70;99.90;;;;;;5065137;28;20398;-75
2021/12/19 13:56:11;;;;;;;18.38;2.67;;;8.60;99.90;;;;;;5087346;28;20112;-75
2021/12/19 13:58:43;;;;;;;21.00;3.03;;;8.60;99.90;;;;;;5075986;28;20042;-75
2021/12/19 14:01:14;;;;;;;18.75;2.33;;;8.60;99.90;;;;;;5089857;28;20456;-75
2021/12/19 14:03:58;;;;;;;14.52;2.78;;;8.60;99.90;;;;;;5090422;28;20051;-75